Cleveland, Ohio
Traffic Map
Current Weather Conditions
Cleveland, Ohio
Overcast
Overcast

Feels Like: -3°
Wind Chill: -3° Ceiling: 2300
Heat Index: Visibility: 10mi
Dew Point: -6° Wind: 5mph
Humidity: 66% Direction: 160° (SSE)
Pressure: 30.33in Gusts: 0mph
Raw Report DataKBKL 211453Z 16004KT 10SM OVC023 00/M06 A3033 RMK AO2 SLP276 T00001056 53003
Traffic Incident Summary
Active as of:
Severity:
Category:
InformationThere was an issue retrieving the traffic information for this location. Please try a different location or try again shortly.
Advertisements
Track Severe Weather on mobile